createdAt,value
2022-10-04T00:01:53.847Z,97.18
2022-10-04T00:04:30.619Z,96.81
2022-10-04T00:07:11.106Z,96.92
2022-10-04T00:09:47.861Z,97.93
2022-10-04T00:12:27.019Z,98.19
2022-10-04T00:15:02.679Z,97.78
2022-10-04T00:17:36.049Z,96.98
2022-10-04T00:20:43.077Z,97.66
2022-10-04T00:23:43.016Z,97.98
2022-10-04T00:26:33.979Z,96.23
2022-10-04T00:29:42.216Z,96.54
2022-10-04T00:32:33.017Z,96.51
2022-10-04T00:35:04.879Z,96.36
2022-10-04T00:38:00.220Z,96.47
2022-10-04T00:40:36.937Z,95.54
2022-10-04T00:43:12.017Z,97.24
2022-10-04T00:45:49.937Z,98.29
2022-10-04T00:48:37.259Z,95.96
2022-10-04T00:51:17.016Z,94.41
2022-10-04T00:56:51.319Z,95.07
2022-10-04T00:59:36.975Z,94.17
2022-10-04T01:02:20.865Z,93.15
2022-10-04T01:04:57.321Z,93.34
2022-10-04T01:07:33.178Z,94.79
2022-10-04T01:10:11.947Z,94.43
2022-10-04T01:12:48.769Z,95.88
2022-10-04T01:15:30.672Z,95.49
2022-10-04T01:18:18.049Z,95.75
2022-10-04T01:20:57.544Z,96.15
2022-10-04T01:23:43.685Z,94.76
2022-10-04T01:26:41.412Z,95.47
2022-10-04T01:29:17.716Z,95.21
2022-10-04T01:31:50.752Z,98.00
2022-10-04T01:34:27.217Z,97.10
2022-10-04T01:37:01.144Z,97.75
2022-10-04T01:39:42.307Z,97.49
2022-10-04T01:42:18.917Z,97.62
2022-10-04T01:44:57.667Z,97.14
2022-10-04T01:47:36.219Z,96.00
2022-10-04T01:50:15.690Z,94.94
2022-10-04T01:52:52.088Z,95.06
2022-10-04T01:55:31.848Z,94.70
2022-10-04T01:58:10.729Z,94.60
2022-10-04T02:00:46.391Z,96.53
2022-10-04T02:03:21.178Z,96.60
2022-10-04T02:05:56.496Z,96.57
2022-10-04T02:08:31.378Z,97.46
2022-10-04T02:11:07.797Z,95.61
2022-10-04T02:13:41.976Z,96.46
2022-10-04T02:16:15.028Z,96.91
2022-10-04T02:18:48.768Z,97.28
2022-10-04T02:21:22.079Z,96.62
2022-10-04T02:23:55.589Z,96.67
2022-10-04T02:26:29.552Z,96.62
2022-10-04T02:29:31.448Z,95.98
2022-10-04T02:32:46.774Z,93.28
2022-10-04T02:35:19.356Z,93.33
2022-10-04T02:37:54.020Z,93.71
2022-10-04T02:40:32.890Z,93.74
2022-10-04T02:43:13.998Z,93.61
2022-10-04T02:45:52.504Z,92.84
2022-10-04T02:48:39.712Z,92.17
2022-10-04T02:51:22.247Z,92.02
2022-10-04T02:54:03.825Z,94.88
2022-10-04T02:56:37.011Z,95.20
2022-10-04T02:59:19.299Z,94.36
2022-10-04T03:01:55.979Z,96.29
2022-10-04T03:04:30.352Z,95.09
2022-10-04T03:07:05.818Z,95.05
2022-10-04T03:09:39.635Z,99.39
2022-10-04T03:12:18.276Z,100.00
2022-10-04T03:14:52.357Z,99.74
2022-10-04T03:17:25.467Z,98.42
2022-10-04T03:19:57.365Z,100.00
2022-10-04T03:22:29.316Z,100.00
2022-10-04T03:25:01.805Z,100.00
2022-10-04T03:27:43.651Z,100.00
2022-10-04T03:30:20.876Z,100.00
2022-10-04T03:32:53.567Z,100.00
2022-10-04T03:35:31.757Z,100.00
2022-10-04T03:38:08.588Z,100.00
2022-10-04T03:40:45.415Z,100.00
2022-10-04T03:43:17.975Z,100.00
2022-10-04T03:45:52.937Z,100.00
2022-10-04T03:48:33.077Z,100.00
2022-10-04T03:51:07.388Z,100.00
2022-10-04T03:53:44.287Z,100.00
2022-10-04T03:56:19.336Z,99.34
2022-10-04T03:58:53.597Z,100.00
2022-10-04T04:01:41.143Z,100.00
2022-10-04T04:04:23.097Z,100.00
2022-10-04T04:07:04.169Z,100.00
2022-10-04T04:09:47.817Z,100.00
2022-10-04T04:12:24.036Z,100.00
2022-10-04T04:14:57.447Z,98.89
2022-10-04T04:17:43.965Z,98.31
2022-10-04T04:20:29.767Z,98.29
2022-10-04T04:23:04.965Z,98.35
2022-10-04T04:25:40.177Z,96.26
2022-10-04T04:28:25.783Z,95.60
2022-10-04T04:31:02.236Z,94.22
2022-10-04T04:33:47.469Z,96.10
2022-10-04T04:36:20.129Z,97.53
2022-10-04T04:39:03.815Z,96.60
2022-10-04T04:41:37.758Z,95.46
2022-10-04T04:44:20.475Z,93.61
2022-10-04T04:46:52.748Z,96.21
2022-10-04T04:49:27.846Z,93.92
2022-10-04T04:52:01.018Z,95.96
2022-10-04T04:54:32.526Z,94.63
2022-10-04T04:57:04.365Z,96.76
2022-10-04T04:59:36.945Z,96.54
2022-10-04T05:02:35.778Z,96.87
2022-10-04T05:05:20.668Z,97.56
2022-10-04T05:07:54.009Z,98.72
2022-10-04T05:10:33.256Z,96.61
2022-10-04T05:13:08.948Z,96.87
2022-10-04T05:15:42.487Z,97.08
2022-10-04T05:18:32.327Z,94.73
2022-10-04T05:21:14.987Z,97.62
2022-10-04T05:23:47.628Z,96.40
2022-10-04T05:26:28.387Z,93.88
2022-10-04T05:29:05.727Z,93.49
2022-10-04T05:31:48.761Z,91.42
2022-10-04T05:34:27.413Z,91.78
2022-10-04T05:37:20.875Z,93.38
2022-10-04T05:40:06.086Z,93.42
2022-10-04T05:42:45.545Z,91.80
2022-10-04T05:45:22.366Z,90.83
2022-10-04T05:47:56.489Z,92.20
2022-10-04T05:50:40.887Z,90.49
2022-10-04T05:53:29.949Z,93.27
2022-10-04T05:56:16.146Z,94.10
2022-10-04T05:59:05.194Z,94.54
2022-10-04T06:01:50.004Z,92.22
2022-10-04T06:04:40.115Z,90.59
2022-10-04T06:07:23.807Z,90.82
2022-10-04T06:10:18.907Z,92.70
2022-10-04T06:12:59.468Z,93.49
2022-10-04T06:16:00.588Z,92.31
2022-10-04T06:18:52.745Z,88.93
2022-10-04T06:21:27.550Z,89.65
2022-10-04T06:24:06.056Z,88.18
2022-10-04T06:26:46.928Z,85.68
2022-10-04T06:29:24.188Z,84.81
2022-10-04T06:32:28.827Z,84.27
2022-10-04T06:35:20.610Z,86.41
2022-10-04T06:38:23.767Z,85.29
2022-10-04T06:41:19.585Z,86.61
2022-10-04T06:44:23.134Z,86.76
2022-10-04T06:47:11.228Z,88.77
2022-10-04T06:49:49.409Z,88.92
2022-10-04T06:52:46.727Z,88.76
2022-10-04T06:55:47.428Z,88.48
2022-10-04T06:58:48.938Z,87.47
2022-10-04T07:01:30.698Z,86.74
2022-10-04T07:04:21.414Z,87.10
2022-10-04T07:07:19.977Z,88.50
2022-10-04T07:09:56.446Z,86.47
2022-10-04T07:12:28.934Z,87.97
2022-10-04T07:15:08.196Z,87.40
2022-10-04T07:17:43.847Z,89.62
2022-10-04T07:20:25.922Z,89.06
2022-10-04T07:23:01.559Z,88.71
2022-10-04T07:25:39.155Z,88.88
2022-10-04T07:28:30.762Z,88.52
2022-10-04T07:31:06.636Z,89.41
2022-10-04T07:33:48.516Z,88.73
2022-10-04T07:36:27.594Z,86.86
2022-10-04T07:39:02.405Z,87.47
2022-10-04T07:41:39.595Z,87.60
2022-10-04T07:44:22.679Z,87.65
2022-10-04T07:46:59.557Z,88.15
2022-10-04T07:49:32.476Z,89.88
2022-10-04T07:52:29.916Z,85.93
2022-10-04T07:55:10.678Z,87.94
2022-10-04T07:57:51.433Z,86.91
2022-10-04T08:00:27.958Z,88.75
2022-10-04T08:03:33.448Z,87.64
2022-10-04T08:06:13.593Z,88.42
2022-10-04T08:09:10.395Z,87.59
2022-10-04T08:11:50.603Z,88.10
2022-10-04T08:14:34.195Z,87.48
2022-10-04T08:17:20.090Z,86.12
2022-10-04T08:20:05.362Z,84.83
2022-10-04T08:22:51.802Z,82.00
2022-10-04T08:25:33.614Z,82.06
2022-10-04T08:28:29.202Z,79.25
2022-10-04T08:31:25.268Z,78.79
2022-10-04T08:34:08.444Z,78.14
2022-10-04T08:36:59.902Z,82.61
2022-10-04T08:39:48.227Z,82.69
2022-10-04T08:42:42.221Z,82.82
2022-10-04T08:45:55.147Z,79.10
2022-10-04T08:49:01.854Z,79.50
2022-10-04T08:52:05.284Z,76.77
2022-10-04T08:55:12.162Z,76.54
2022-10-04T08:58:28.676Z,74.48
2022-10-04T09:01:21.504Z,75.21
2022-10-04T09:04:31.397Z,75.97
2022-10-04T09:07:27.196Z,74.29
2022-10-04T09:10:21.928Z,72.34
2022-10-04T09:13:08.838Z,71.35
2022-10-04T09:16:09.430Z,70.74
2022-10-04T09:19:03.648Z,67.86
2022-10-04T09:22:05.291Z,67.42
2022-10-04T09:25:09.972Z,66.71
2022-10-04T09:28:07.801Z,65.69
2022-10-04T09:30:56.352Z,68.97
2022-10-04T09:33:56.107Z,69.38
2022-10-04T09:36:46.074Z,70.77
2022-10-04T09:39:34.709Z,72.00
2022-10-04T09:42:38.510Z,69.45
2022-10-04T09:45:32.279Z,69.52
2022-10-04T09:48:38.158Z,70.27
2022-10-04T09:51:33.873Z,71.68
2022-10-04T09:54:20.321Z,70.91
2022-10-04T09:57:12.230Z,68.64
2022-10-04T10:00:02.999Z,68.59
2022-10-04T10:03:15.882Z,68.79
2022-10-04T10:06:07.351Z,69.79
2022-10-04T10:08:52.030Z,69.94
2022-10-04T10:11:48.042Z,68.28
2022-10-04T10:14:54.673Z,70.13
2022-10-04T10:17:40.513Z,68.01
2022-10-04T10:20:46.194Z,69.39
2022-10-04T10:24:08.794Z,70.28
2022-10-04T10:27:06.271Z,67.12
2022-10-04T10:30:04.549Z,64.63
2022-10-04T10:33:13.992Z,66.07
2022-10-04T10:36:17.513Z,65.62
2022-10-04T10:39:06.589Z,65.62
2022-10-04T10:42:05.711Z,64.07
2022-10-04T10:45:15.312Z,63.46
2022-10-04T10:48:00.059Z,62.54
2022-10-04T10:51:03.681Z,63.37
2022-10-04T10:54:18.737Z,65.06
2022-10-04T10:57:03.417Z,66.39
2022-10-04T11:00:08.739Z,67.24
2022-10-04T11:03:13.544Z,67.81
2022-10-04T11:06:12.539Z,66.54
2022-10-04T11:09:32.098Z,66.26
2022-10-04T11:12:42.336Z,68.08
2022-10-04T11:15:53.553Z,68.07
2022-10-04T11:18:52.383Z,66.96
2022-10-04T11:21:50.900Z,66.56
2022-10-04T11:25:04.897Z,67.87
2022-10-04T11:27:57.216Z,68.30
2022-10-04T11:30:33.495Z,66.39
2022-10-04T11:33:35.175Z,63.67
2022-10-04T11:36:43.327Z,64.63
2022-10-04T11:39:44.817Z,64.48
2022-10-04T11:42:27.907Z,64.22
2022-10-04T11:45:20.899Z,65.68
2022-10-04T11:48:11.747Z,62.93
2022-10-04T11:51:18.858Z,64.26
2022-10-04T11:54:30.551Z,65.58
2022-10-04T11:57:25.460Z,65.75
2022-10-04T12:00:12.781Z,65.71
2022-10-04T12:03:22.913Z,66.38
2022-10-04T12:06:20.618Z,66.78
2022-10-04T12:09:06.815Z,68.01
2022-10-04T12:12:16.775Z,66.89
2022-10-04T12:15:20.618Z,65.00
2022-10-04T12:18:25.180Z,63.41
2022-10-04T12:21:22.258Z,62.21
2022-10-04T12:24:18.020Z,62.45
2022-10-04T12:27:23.897Z,60.75
2022-10-04T12:30:14.871Z,58.52
2022-10-04T12:32:58.494Z,60.01
2022-10-04T12:35:48.222Z,58.73
2022-10-04T12:38:46.937Z,58.11
2022-10-04T12:41:34.096Z,59.97
2022-10-04T12:44:19.857Z,61.39
2022-10-04T12:47:05.896Z,60.47
2022-10-04T12:49:51.739Z,61.42
2022-10-04T12:52:28.184Z,61.60
2022-10-04T12:55:18.662Z,59.62
2022-10-04T12:58:37.738Z,60.81
2022-10-04T13:01:27.259Z,60.06
2022-10-04T13:04:16.982Z,60.12
2022-10-04T13:07:03.779Z,60.81
2022-10-04T13:12:44.618Z,57.01
2022-10-04T13:17:23.449Z,60.26
2022-10-04T13:18:30.338Z,54.98
2022-10-04T13:21:05.900Z,58.92
2022-10-04T13:23:57.457Z,57.98
2022-10-04T13:26:40.536Z,58.56
2022-10-04T13:29:25.778Z,57.77
2022-10-04T13:32:04.823Z,57.01
2022-10-04T13:34:46.503Z,58.36
2022-10-04T13:37:35.897Z,57.71
2022-10-04T13:40:37.865Z,57.17
2022-10-04T13:43:40.903Z,56.11
2022-10-04T13:46:27.744Z,56.88
2022-10-04T13:49:08.058Z,57.74
2022-10-04T13:52:22.259Z,57.44
2022-10-04T13:55:17.457Z,57.95
2022-10-04T13:58:00.378Z,58.99
2022-10-04T14:00:47.138Z,60.11
2022-10-04T14:03:36.407Z,56.72
2022-10-04T14:06:43.947Z,58.55
2022-10-04T14:09:47.989Z,57.61
2022-10-04T14:13:06.426Z,58.49
2022-10-04T14:16:04.900Z,56.99
2022-10-04T14:19:04.071Z,57.67
2022-10-04T14:22:11.668Z,56.59
2022-10-04T14:25:25.467Z,55.12
2022-10-04T14:28:32.034Z,56.21
2022-10-04T14:31:21.438Z,56.48
2022-10-04T14:34:30.827Z,57.09
2022-10-04T14:37:29.628Z,57.46
2022-10-04T14:40:37.629Z,58.14
2022-10-04T14:43:51.630Z,56.91
2022-10-04T14:46:31.192Z,57.12
2022-10-04T14:49:14.714Z,58.63
2022-10-04T14:52:09.146Z,59.43
2022-10-04T14:54:54.111Z,57.40
2022-10-04T14:57:50.626Z,58.03
2022-10-04T15:00:27.147Z,57.94
2022-10-04T15:03:23.115Z,58.18
2022-10-04T15:06:21.593Z,59.62
2022-10-04T15:09:41.386Z,58.40
2022-10-04T15:16:12.930Z,59.27
2022-10-04T15:18:56.031Z,59.63
2022-10-04T15:21:46.354Z,60.50
2022-10-04T15:24:31.906Z,59.50
2022-10-04T15:27:38.868Z,60.78
2022-10-04T15:30:24.031Z,62.16
2022-10-04T15:33:20.316Z,62.63
2022-10-04T15:36:17.286Z,62.16
2022-10-04T15:39:03.129Z,61.65
2022-10-04T15:41:46.169Z,62.35
2022-10-04T15:44:56.168Z,62.18
2022-10-04T15:47:34.836Z,62.46
2022-10-04T15:50:28.556Z,61.49
2022-10-04T15:53:29.021Z,64.10
2022-10-04T15:56:34.499Z,62.56
2022-10-04T15:59:39.389Z,62.65
2022-10-04T16:02:29.552Z,63.73
2022-10-04T16:05:16.830Z,65.28
2022-10-04T16:08:10.147Z,64.10
2022-10-04T16:11:20.710Z,64.31
2022-10-04T16:14:28.465Z,64.81
2022-10-04T16:17:25.103Z,65.32
2022-10-04T16:20:22.052Z,66.52
2022-10-04T16:23:25.417Z,67.28
2022-10-04T16:25:59.731Z,67.39
2022-10-04T16:28:47.732Z,66.25
2022-10-04T16:31:30.513Z,65.90
2022-10-04T16:34:33.893Z,67.67
2022-10-04T16:37:18.948Z,68.10
2022-10-04T16:40:04.072Z,69.47
2022-10-04T16:42:59.999Z,68.58
2022-10-04T16:45:50.333Z,68.08
2022-10-04T16:48:35.389Z,68.49
2022-10-04T16:51:49.031Z,68.54
2022-10-04T16:54:45.629Z,68.76
2022-10-04T16:57:24.191Z,69.48
2022-10-04T17:00:01.387Z,70.47
2022-10-04T17:03:07.301Z,70.86
2022-10-04T17:05:49.372Z,70.56
2022-10-04T17:08:35.550Z,70.38
2022-10-04T17:11:30.499Z,71.06
2022-10-04T17:14:07.929Z,72.10
2022-10-04T17:16:55.512Z,73.02
2022-10-04T17:19:52.974Z,73.11
2022-10-04T17:22:35.951Z,73.39
2022-10-04T17:25:24.973Z,73.47
2022-10-04T17:28:00.857Z,74.15
2022-10-04T17:30:51.624Z,74.11
2022-10-04T17:33:45.751Z,74.92
2022-10-04T17:36:47.862Z,74.43
2022-10-04T17:39:39.965Z,74.75
2022-10-04T17:42:27.396Z,75.23
2022-10-04T17:45:22.799Z,75.18
2022-10-04T17:48:15.715Z,75.72
2022-10-04T17:51:12.134Z,76.62
2022-10-04T17:54:02.835Z,75.38
2022-10-04T17:56:40.497Z,75.13
2022-10-04T17:59:19.606Z,74.91
2022-10-04T18:02:06.222Z,75.30
2022-10-04T18:05:08.874Z,74.84
2022-10-04T18:07:51.135Z,74.92
2022-10-04T18:10:31.177Z,74.66
2022-10-04T18:13:24.955Z,73.99
2022-10-04T18:16:16.800Z,74.03
2022-10-04T18:18:51.255Z,73.79
2022-10-04T18:21:27.558Z,74.73
2022-10-04T18:24:24.375Z,73.95
2022-10-04T18:27:05.476Z,74.41
2022-10-04T18:29:43.036Z,74.68
2022-10-04T18:32:38.536Z,74.67
2022-10-04T18:35:28.159Z,75.00
2022-10-04T18:38:16.276Z,76.54
2022-10-04T18:40:59.315Z,76.68
2022-10-04T18:43:34.956Z,76.49
2022-10-04T18:46:21.436Z,75.79
2022-10-04T18:48:58.935Z,76.33
2022-10-04T18:51:34.356Z,76.08
2022-10-04T18:54:21.838Z,75.94
2022-10-04T18:57:05.516Z,76.14
2022-10-04T19:00:09.427Z,75.17
2022-10-04T19:02:52.654Z,75.51
2022-10-04T19:05:40.016Z,75.16
2022-10-04T19:08:25.734Z,76.50
2022-10-04T19:11:05.596Z,76.26
2022-10-04T19:13:47.481Z,76.99
2022-10-04T19:16:30.765Z,76.98
2022-10-04T19:19:16.857Z,76.42
2022-10-04T19:21:59.784Z,76.27
2022-10-04T19:24:58.221Z,76.79
2022-10-04T19:27:36.925Z,76.93
2022-10-04T19:30:22.329Z,76.53
2022-10-04T19:33:07.106Z,77.26
2022-10-04T19:35:56.940Z,77.75
2022-10-04T19:38:53.144Z,77.22
2022-10-04T19:41:37.281Z,77.00
2022-10-04T19:44:21.640Z,77.70
2022-10-04T19:47:05.119Z,78.26
2022-10-04T19:49:46.239Z,78.03
2022-10-04T19:52:31.921Z,79.59
2022-10-04T19:55:25.300Z,79.20
2022-10-04T19:58:05.108Z,78.44
2022-10-04T20:00:38.722Z,78.46
2022-10-04T20:03:16.584Z,79.26
2022-10-04T20:05:51.520Z,79.82
2022-10-04T20:08:55.684Z,80.52
2022-10-04T20:11:49.100Z,81.28
2022-10-04T20:14:57.080Z,81.67
2022-10-04T20:17:38.379Z,82.37
2022-10-04T20:20:16.827Z,82.95
2022-10-04T20:23:00.304Z,83.02
2022-10-04T20:26:01.969Z,82.55
2022-10-04T20:28:43.707Z,82.23
2022-10-04T20:31:57.297Z,82.19
2022-10-04T20:34:52.240Z,82.51
2022-10-04T20:38:30.732Z,81.20
2022-10-04T20:40:57.454Z,80.14
2022-10-04T20:43:30.593Z,80.67
2022-10-04T20:46:05.031Z,80.79
2022-10-04T20:48:37.194Z,81.32
2022-10-04T20:51:12.673Z,81.72
2022-10-04T20:53:51.153Z,80.93
2022-10-04T20:56:26.915Z,81.85
2022-10-04T20:59:00.696Z,81.77
2022-10-04T21:01:50.719Z,81.93
2022-10-04T21:04:31.054Z,82.72
2022-10-04T21:07:06.205Z,81.99
2022-10-04T21:09:42.333Z,81.86
2022-10-04T21:12:34.154Z,81.59
2022-10-04T21:15:10.333Z,81.32
2022-10-04T21:17:42.753Z,81.45
2022-10-04T21:20:18.655Z,81.59
2022-10-04T21:22:53.439Z,82.16
2022-10-04T21:25:35.814Z,82.33
2022-10-04T21:28:46.993Z,82.05
2022-10-04T21:31:19.235Z,82.63
2022-10-04T21:33:52.132Z,82.33
2022-10-04T21:36:24.154Z,82.35
2022-10-04T21:38:56.834Z,83.11
2022-10-04T21:41:31.253Z,82.63
2022-10-04T21:44:03.393Z,82.93
2022-10-04T21:46:35.200Z,82.40
2022-10-04T21:49:07.295Z,82.00
2022-10-04T21:51:40.731Z,82.20
2022-10-04T21:54:12.754Z,81.97
2022-10-04T21:56:47.759Z,81.29
2022-10-04T21:59:20.343Z,81.56
2022-10-04T22:01:52.243Z,81.92
2022-10-04T22:04:24.415Z,81.82
2022-10-04T22:06:56.372Z,82.79
2022-10-04T22:09:28.320Z,84.10
2022-10-04T22:12:02.713Z,83.76
2022-10-04T22:14:34.896Z,83.26
2022-10-04T22:17:06.497Z,82.79
2022-10-04T22:19:41.833Z,82.78
2022-10-04T22:22:18.033Z,83.18
2022-10-04T22:24:52.032Z,83.25
2022-10-04T22:27:26.655Z,82.34
2022-10-04T22:33:34.338Z,83.54
2022-10-04T22:36:18.464Z,83.61
2022-10-04T22:39:01.153Z,83.49
2022-10-04T22:41:43.566Z,84.25
2022-10-04T22:44:21.663Z,83.99
2022-10-04T22:46:57.940Z,84.18
2022-10-04T22:49:33.201Z,84.81
2022-10-04T22:52:09.749Z,84.82
2022-10-04T22:54:58.227Z,84.89
2022-10-04T22:57:30.698Z,85.59
2022-10-04T23:00:05.327Z,85.02
2022-10-04T23:02:37.552Z,85.44
2022-10-04T23:05:17.028Z,85.49
2022-10-04T23:07:50.629Z,85.41
2022-10-04T23:10:23.416Z,85.13
2022-10-04T23:12:55.778Z,85.68
2022-10-04T23:15:30.219Z,85.29
2022-10-04T23:18:02.580Z,85.67
2022-10-04T23:20:34.422Z,85.84
2022-10-04T23:23:17.607Z,85.96
2022-10-04T23:25:49.571Z,86.13
2022-10-04T23:28:23.312Z,85.68
2022-10-04T23:31:08.318Z,85.15
2022-10-04T23:33:40.578Z,85.67
2022-10-04T23:36:15.859Z,85.06
2022-10-04T23:38:53.118Z,85.42
2022-10-04T23:41:25.599Z,85.33
2022-10-04T23:43:58.251Z,86.55
2022-10-04T23:46:34.108Z,85.12
2022-10-04T23:49:06.508Z,85.81
2022-10-04T23:51:38.999Z,85.58
2022-10-04T23:54:16.439Z,85.39
2022-10-04T23:56:50.380Z,84.76
2022-10-04T23:59:26.911Z,85.50
